sensor_id;sensor_type;location;lat;lon;timestamp;P1;durP1;ratioP1;P2;durP2;ratioP2
7051;SDS011;3567;52.444;13.556;2023-03-01T00:01:04;27.50;;;16.10;;
7051;SDS011;3567;52.444;13.556;2023-03-01T00:03:32;27.13;;;17.20;;
7051;SDS011;3567;52.444;13.556;2023-03-01T00:05:58;30.27;;;16.33;;
7051;SDS011;3567;52.444;13.556;2023-03-01T00:08:24;31.70;;;16.23;;
7051;SDS011;3567;52.444;13.556;2023-03-01T00:10:59;31.20;;;16.35;;
7051;SDS011;3567;52.444;13.556;2023-03-01T00:13:43;22.40;;;14.57;;
7051;SDS011;3567;52.444;13.556;2023-03-01T00:16:14;28.98;;;15.15;;
7051;SDS011;3567;52.444;13.556;2023-03-01T00:18:41;25.30;;;15.40;;
7051;SDS011;3567;52.444;13.556;2023-03-01T00:21:06;28.92;;;15.43;;
7051;SDS011;3567;52.444;13.556;2023-03-01T00:23:33;27.42;;;15.85;;
7051;SDS011;3567;52.444;13.556;2023-03-01T00:25:59;27.10;;;14.85;;
7051;SDS011;3567;52.444;13.556;2023-03-01T00:28:25;28.00;;;15.00;;
7051;SDS011;3567;52.444;13.556;2023-03-01T00:30:50;30.85;;;16.55;;
7051;SDS011;3567;52.444;13.556;2023-03-01T00:33:16;27.40;;;16.25;;
7051;SDS011;3567;52.444;13.556;2023-03-01T00:35:41;27.05;;;17.00;;
7051;SDS011;3567;52.444;13.556;2023-03-01T00:38:06;30.48;;;15.68;;
7051;SDS011;3567;52.444;13.556;2023-03-01T00:40:33;24.85;;;16.20;;
7051;SDS011;3567;52.444;13.556;2023-03-01T00:43:00;27.80;;;16.33;;
7051;SDS011;3567;52.444;13.556;2023-03-01T00:45:26;27.37;;;15.53;;
7051;SDS011;3567;52.444;13.556;2023-03-01T00:47:52;28.73;;;18.75;;
7051;SDS011;3567;52.444;13.556;2023-03-01T00:50:18;26.20;;;16.75;;
7051;SDS011;3567;52.444;13.556;2023-03-01T00:52:44;27.88;;;16.17;;
7051;SDS011;3567;52.444;13.556;2023-03-01T00:55:10;24.55;;;16.67;;
7051;SDS011;3567;52.444;13.556;2023-03-01T00:57:36;25.65;;;16.02;;
7051;SDS011;3567;52.444;13.556;2023-03-01T01:00:05;30.30;;;17.40;;
7051;SDS011;3567;52.444;13.556;2023-03-01T01:02:32;34.33;;;18.67;;
7051;SDS011;3567;52.444;13.556;2023-03-01T01:04:58;33.10;;;16.80;;
7051;SDS011;3567;52.444;13.556;2023-03-01T01:07:24;28.88;;;17.85;;
7051;SDS011;3567;52.444;13.556;2023-03-01T01:09:49;31.20;;;17.13;;
7051;SDS011;3567;52.444;13.556;2023-03-01T01:12:15;26.50;;;15.80;;
7051;SDS011;3567;52.444;13.556;2023-03-01T01:14:40;28.58;;;16.15;;
7051;SDS011;3567;52.444;13.556;2023-03-01T01:17:05;28.63;;;17.05;;
7051;SDS011;3567;52.444;13.556;2023-03-01T01:19:31;29.73;;;16.45;;
7051;SDS011;3567;52.444;13.556;2023-03-01T01:21:56;27.05;;;16.50;;
7051;SDS011;3567;52.444;13.556;2023-03-01T01:24:21;24.33;;;14.40;;
7051;SDS011;3567;52.444;13.556;2023-03-01T01:26:47;29.90;;;16.77;;
7051;SDS011;3567;52.444;13.556;2023-03-01T01:29:12;30.35;;;16.70;;
7051;SDS011;3567;52.444;13.556;2023-03-01T01:31:39;27.80;;;16.48;;
7051;SDS011;3567;52.444;13.556;2023-03-01T01:34:07;28.85;;;16.70;;
7051;SDS011;3567;52.444;13.556;2023-03-01T01:36:36;25.75;;;14.50;;
7051;SDS011;3567;52.444;13.556;2023-03-01T01:39:02;27.65;;;15.20;;
7051;SDS011;3567;52.444;13.556;2023-03-01T01:41:28;25.90;;;14.38;;
7051;SDS011;3567;52.444;13.556;2023-03-01T01:44:10;25.48;;;15.18;;
7051;SDS011;3567;52.444;13.556;2023-03-01T01:46:39;27.02;;;15.30;;
7051;SDS011;3567;52.444;13.556;2023-03-01T01:49:16;28.25;;;16.05;;
7051;SDS011;3567;52.444;13.556;2023-03-01T01:51:48;27.90;;;16.35;;
7051;SDS011;3567;52.444;13.556;2023-03-01T01:54:20;32.40;;;16.08;;
7051;SDS011;3567;52.444;13.556;2023-03-01T01:57:00;25.77;;;15.23;;
7051;SDS011;3567;52.444;13.556;2023-03-01T01:59:29;29.38;;;16.85;;
7051;SDS011;3567;52.444;13.556;2023-03-01T02:01:57;31.13;;;15.93;;
7051;SDS011;3567;52.444;13.556;2023-03-01T02:04:26;23.70;;;14.73;;
7051;SDS011;3567;52.444;13.556;2023-03-01T02:06:55;27.48;;;16.75;;
7051;SDS011;3567;52.444;13.556;2023-03-01T02:09:26;32.20;;;17.20;;
7051;SDS011;3567;52.444;13.556;2023-03-01T02:11:51;24.80;;;15.05;;
7051;SDS011;3567;52.444;13.556;2023-03-01T02:14:18;26.58;;;16.73;;
7051;SDS011;3567;52.444;13.556;2023-03-01T02:16:44;27.92;;;15.90;;
7051;SDS011;3567;52.444;13.556;2023-03-01T02:19:11;27.15;;;16.40;;
7051;SDS011;3567;52.444;13.556;2023-03-01T02:22:35;29.30;;;16.45;;
7051;SDS011;3567;52.444;13.556;2023-03-01T02:27:15;30.10;;;16.40;;
7051;SDS011;3567;52.444;13.556;2023-03-01T02:29:42;33.37;;;16.23;;
7051;SDS011;3567;52.444;13.556;2023-03-01T02:32:09;32.90;;;16.60;;
7051;SDS011;3567;52.444;13.556;2023-03-01T02:34:35;35.40;;;17.00;;
7051;SDS011;3567;52.444;13.556;2023-03-01T02:37:03;33.42;;;17.17;;
7051;SDS011;3567;52.444;13.556;2023-03-01T02:39:40;28.52;;;17.13;;
7051;SDS011;3567;52.444;13.556;2023-03-01T02:42:11;32.13;;;17.87;;
7051;SDS011;3567;52.444;13.556;2023-03-01T02:44:39;28.83;;;17.17;;
7051;SDS011;3567;52.444;13.556;2023-03-01T02:47:05;35.10;;;17.47;;
7051;SDS011;3567;52.444;13.556;2023-03-01T02:49:32;31.20;;;17.37;;
7051;SDS011;3567;52.444;13.556;2023-03-01T02:52:08;26.03;;;16.47;;
7051;SDS011;3567;52.444;13.556;2023-03-01T02:57:10;29.33;;;16.33;;
7051;SDS011;3567;52.444;13.556;2023-03-01T02:59:37;30.77;;;16.98;;
7051;SDS011;3567;52.444;13.556;2023-03-01T03:02:08;28.97;;;14.77;;
7051;SDS011;3567;52.444;13.556;2023-03-01T03:05:01;29.55;;;16.58;;
7051;SDS011;3567;52.444;13.556;2023-03-01T03:07:38;31.93;;;17.87;;
7051;SDS011;3567;52.444;13.556;2023-03-01T03:10:07;28.83;;;17.85;;
7051;SDS011;3567;52.444;13.556;2023-03-01T03:12:36;32.07;;;17.67;;
7051;SDS011;3567;52.444;13.556;2023-03-01T03:15:02;26.08;;;16.10;;
7051;SDS011;3567;52.444;13.556;2023-03-01T03:17:33;27.10;;;17.53;;
7051;SDS011;3567;52.444;13.556;2023-03-01T03:20:03;33.27;;;20.50;;
7051;SDS011;3567;52.444;13.556;2023-03-01T03:22:29;41.37;;;20.67;;
7051;SDS011;3567;52.444;13.556;2023-03-01T03:24:55;33.87;;;18.00;;
7051;SDS011;3567;52.444;13.556;2023-03-01T03:27:20;29.95;;;17.30;;
7051;SDS011;3567;52.444;13.556;2023-03-01T03:29:46;31.20;;;17.83;;
7051;SDS011;3567;52.444;13.556;2023-03-01T03:32:11;25.67;;;17.17;;
7051;SDS011;3567;52.444;13.556;2023-03-01T03:34:36;28.80;;;17.45;;
7051;SDS011;3567;52.444;13.556;2023-03-01T03:37:02;33.43;;;17.20;;
7051;SDS011;3567;52.444;13.556;2023-03-01T03:39:27;22.17;;;15.25;;
7051;SDS011;3567;52.444;13.556;2023-03-01T03:41:54;27.50;;;17.23;;
7051;SDS011;3567;52.444;13.556;2023-03-01T03:44:20;27.97;;;16.53;;
7051;SDS011;3567;52.444;13.556;2023-03-01T03:46:46;27.13;;;16.73;;
7051;SDS011;3567;52.444;13.556;2023-03-01T03:49:11;32.63;;;17.30;;
7051;SDS011;3567;52.444;13.556;2023-03-01T03:51:37;22.70;;;14.90;;
7051;SDS011;3567;52.444;13.556;2023-03-01T03:54:02;23.67;;;14.63;;
7051;SDS011;3567;52.444;13.556;2023-03-01T03:56:27;25.93;;;14.33;;
7051;SDS011;3567;52.444;13.556;2023-03-01T03:58:53;28.10;;;15.47;;
7051;SDS011;3567;52.444;13.556;2023-03-01T04:01:18;25.87;;;15.00;;
7051;SDS011;3567;52.444;13.556;2023-03-01T04:03:45;27.37;;;14.07;;
7051;SDS011;3567;52.444;13.556;2023-03-01T04:06:13;24.88;;;15.35;;
7051;SDS011;3567;52.444;13.556;2023-03-01T04:08:39;23.85;;;14.88;;
7051;SDS011;3567;52.444;13.556;2023-03-01T04:11:05;27.30;;;16.00;;
7051;SDS011;3567;52.444;13.556;2023-03-01T04:13:50;23.00;;;15.80;;
7051;SDS011;3567;52.444;13.556;2023-03-01T04:16:17;24.77;;;14.60;;
7051;SDS011;3567;52.444;13.556;2023-03-01T04:18:43;22.23;;;14.30;;
7051;SDS011;3567;52.444;13.556;2023-03-01T04:21:09;27.83;;;16.05;;
7051;SDS011;3567;52.444;13.556;2023-03-01T04:23:36;28.13;;;16.17;;
7051;SDS011;3567;52.444;13.556;2023-03-01T04:26:02;25.27;;;14.20;;
7051;SDS011;3567;52.444;13.556;2023-03-01T04:28:41;25.33;;;14.80;;
7051;SDS011;3567;52.444;13.556;2023-03-01T04:31:12;28.47;;;16.20;;
7051;SDS011;3567;52.444;13.556;2023-03-01T04:33:42;28.60;;;14.70;;
7051;SDS011;3567;52.444;13.556;2023-03-01T04:36:13;23.67;;;14.57;;
7051;SDS011;3567;52.444;13.556;2023-03-01T04:38:40;27.45;;;15.65;;
7051;SDS011;3567;52.444;13.556;2023-03-01T04:41:08;26.57;;;14.30;;
7051;SDS011;3567;52.444;13.556;2023-03-01T04:43:36;29.08;;;15.00;;
7051;SDS011;3567;52.444;13.556;2023-03-01T04:46:06;22.37;;;15.00;;
7051;SDS011;3567;52.444;13.556;2023-03-01T04:48:37;29.73;;;13.73;;
7051;SDS011;3567;52.444;13.556;2023-03-01T04:51:04;26.93;;;13.50;;
7051;SDS011;3567;52.444;13.556;2023-03-01T04:53:31;22.27;;;13.77;;
7051;SDS011;3567;52.444;13.556;2023-03-01T04:55:57;26.97;;;15.57;;
7051;SDS011;3567;52.444;13.556;2023-03-01T04:58:24;23.73;;;15.07;;
7051;SDS011;3567;52.444;13.556;2023-03-01T05:00:50;26.63;;;13.77;;
7051;SDS011;3567;52.444;13.556;2023-03-01T05:03:16;22.53;;;13.00;;
7051;SDS011;3567;52.444;13.556;2023-03-01T05:05:45;21.97;;;12.70;;
7051;SDS011;3567;52.444;13.556;2023-03-01T05:08:12;25.33;;;13.73;;
7051;SDS011;3567;52.444;13.556;2023-03-01T05:10:43;25.07;;;12.83;;
7051;SDS011;3567;52.444;13.556;2023-03-01T05:13:11;24.27;;;13.43;;
7051;SDS011;3567;52.444;13.556;2023-03-01T05:15:38;30.50;;;14.63;;
7051;SDS011;3567;52.444;13.556;2023-03-01T05:18:04;25.27;;;14.43;;
7051;SDS011;3567;52.444;13.556;2023-03-01T05:20:36;23.47;;;13.47;;
7051;SDS011;3567;52.444;13.556;2023-03-01T05:23:02;23.00;;;13.43;;
7051;SDS011;3567;52.444;13.556;2023-03-01T05:25:30;23.80;;;13.07;;
7051;SDS011;3567;52.444;13.556;2023-03-01T05:28:00;24.17;;;14.10;;
7051;SDS011;3567;52.444;13.556;2023-03-01T05:30:29;22.07;;;13.20;;
7051;SDS011;3567;52.444;13.556;2023-03-01T05:32:56;26.27;;;16.07;;
7051;SDS011;3567;52.444;13.556;2023-03-01T05:35:21;24.40;;;14.00;;
7051;SDS011;3567;52.444;13.556;2023-03-01T05:37:47;24.37;;;13.37;;
7051;SDS011;3567;52.444;13.556;2023-03-01T05:40:15;19.70;;;12.13;;
7051;SDS011;3567;52.444;13.556;2023-03-01T05:42:44;24.27;;;13.25;;
7051;SDS011;3567;52.444;13.556;2023-03-01T05:45:11;25.30;;;12.83;;
7051;SDS011;3567;52.444;13.556;2023-03-01T05:47:38;21.37;;;12.40;;
7051;SDS011;3567;52.444;13.556;2023-03-01T05:50:08;28.27;;;14.13;;
7051;SDS011;3567;52.444;13.556;2023-03-01T05:52:38;23.73;;;12.20;;
7051;SDS011;3567;52.444;13.556;2023-03-01T05:55:04;28.00;;;13.23;;
7051;SDS011;3567;52.444;13.556;2023-03-01T05:57:29;20.67;;;12.10;;
7051;SDS011;3567;52.444;13.556;2023-03-01T05:59:55;22.17;;;13.63;;
7051;SDS011;3567;52.444;13.556;2023-03-01T06:02:20;27.53;;;13.40;;
7051;SDS011;3567;52.444;13.556;2023-03-01T06:04:46;25.07;;;13.93;;
7051;SDS011;3567;52.444;13.556;2023-03-01T06:07:11;22.37;;;12.93;;
7051;SDS011;3567;52.444;13.556;2023-03-01T06:09:36;29.27;;;14.23;;
7051;SDS011;3567;52.444;13.556;2023-03-01T06:12:02;22.53;;;12.87;;
7051;SDS011;3567;52.444;13.556;2023-03-01T06:14:27;22.13;;;12.90;;
7051;SDS011;3567;52.444;13.556;2023-03-01T06:16:52;20.23;;;11.88;;
7051;SDS011;3567;52.444;13.556;2023-03-01T06:19:18;24.10;;;12.80;;
7051;SDS011;3567;52.444;13.556;2023-03-01T06:21:43;21.63;;;13.23;;
7051;SDS011;3567;52.444;13.556;2023-03-01T06:24:08;24.10;;;14.20;;
7051;SDS011;3567;52.444;13.556;2023-03-01T06:26:34;28.27;;;13.10;;
7051;SDS011;3567;52.444;13.556;2023-03-01T06:28:59;27.03;;;14.17;;
7051;SDS011;3567;52.444;13.556;2023-03-01T06:31:25;21.63;;;13.63;;
7051;SDS011;3567;52.444;13.556;2023-03-01T06:33:50;22.38;;;14.10;;
7051;SDS011;3567;52.444;13.556;2023-03-01T06:36:15;21.53;;;14.73;;
7051;SDS011;3567;52.444;13.556;2023-03-01T06:38:43;24.73;;;13.70;;
7051;SDS011;3567;52.444;13.556;2023-03-01T06:41:09;26.67;;;16.07;;
7051;SDS011;3567;52.444;13.556;2023-03-01T06:43:34;21.70;;;15.37;;
7051;SDS011;3567;52.444;13.556;2023-03-01T06:46:00;19.77;;;14.23;;
7051;SDS011;3567;52.444;13.556;2023-03-01T06:48:28;23.90;;;14.27;;
7051;SDS011;3567;52.444;13.556;2023-03-01T06:50:53;27.17;;;15.40;;
7051;SDS011;3567;52.444;13.556;2023-03-01T06:53:18;30.20;;;17.23;;
7051;SDS011;3567;52.444;13.556;2023-03-01T06:55:44;23.48;;;14.75;;
7051;SDS011;3567;52.444;13.556;2023-03-01T06:58:09;25.35;;;15.48;;
7051;SDS011;3567;52.444;13.556;2023-03-01T07:00:36;26.60;;;16.23;;
7051;SDS011;3567;52.444;13.556;2023-03-01T07:03:01;31.40;;;17.27;;
7051;SDS011;3567;52.444;13.556;2023-03-01T07:05:27;60.92;;;23.88;;
7051;SDS011;3567;52.444;13.556;2023-03-01T07:07:53;33.88;;;19.23;;
7051;SDS011;3567;52.444;13.556;2023-03-01T07:10:20;34.67;;;18.50;;
7051;SDS011;3567;52.444;13.556;2023-03-01T07:12:45;51.10;;;23.85;;
7051;SDS011;3567;52.444;13.556;2023-03-01T07:15:11;53.72;;;25.85;;
7051;SDS011;3567;52.444;13.556;2023-03-01T07:17:36;48.08;;;22.13;;
7051;SDS011;3567;52.444;13.556;2023-03-01T07:20:02;43.88;;;24.35;;
7051;SDS011;3567;52.444;13.556;2023-03-01T07:22:28;47.57;;;28.60;;
7051;SDS011;3567;52.444;13.556;2023-03-01T07:24:53;42.55;;;23.73;;
7051;SDS011;3567;52.444;13.556;2023-03-01T07:27:18;41.28;;;22.40;;
7051;SDS011;3567;52.444;13.556;2023-03-01T07:29:44;43.63;;;22.80;;
7051;SDS011;3567;52.444;13.556;2023-03-01T07:32:09;85.35;;;31.90;;
7051;SDS011;3567;52.444;13.556;2023-03-01T07:34:35;131.73;;;44.53;;
7051;SDS011;3567;52.444;13.556;2023-03-01T07:37:01;205.65;;;54.35;;
7051;SDS011;3567;52.444;13.556;2023-03-01T07:39:26;175.77;;;50.67;;
7051;SDS011;3567;52.444;13.556;2023-03-01T07:41:51;104.80;;;38.58;;
7051;SDS011;3567;52.444;13.556;2023-03-01T07:44:17;137.95;;;42.50;;
7051;SDS011;3567;52.444;13.556;2023-03-01T07:46:43;152.43;;;46.60;;
7051;SDS011;3567;52.444;13.556;2023-03-01T07:49:09;99.93;;;32.00;;
7051;SDS011;3567;52.444;13.556;2023-03-01T07:51:34;51.17;;;24.05;;
7051;SDS011;3567;52.444;13.556;2023-03-01T07:53:59;45.92;;;22.63;;
7051;SDS011;3567;52.444;13.556;2023-03-01T07:56:25;49.92;;;20.42;;
7051;SDS011;3567;52.444;13.556;2023-03-01T07:58:50;43.67;;;19.63;;
7051;SDS011;3567;52.444;13.556;2023-03-01T08:01:17;50.53;;;21.58;;
7051;SDS011;3567;52.444;13.556;2023-03-01T08:03:44;48.58;;;20.48;;
7051;SDS011;3567;52.444;13.556;2023-03-01T08:06:10;48.03;;;22.55;;
7051;SDS011;3567;52.444;13.556;2023-03-01T08:08:37;52.17;;;21.63;;
7051;SDS011;3567;52.444;13.556;2023-03-01T08:11:04;39.47;;;19.77;;
7051;SDS011;3567;52.444;13.556;2023-03-01T08:13:31;45.53;;;20.25;;
7051;SDS011;3567;52.444;13.556;2023-03-01T08:16:08;48.03;;;19.90;;
7051;SDS011;3567;52.444;13.556;2023-03-01T08:18:36;39.65;;;18.38;;
7051;SDS011;3567;52.444;13.556;2023-03-01T08:21:05;26.52;;;15.25;;
7051;SDS011;3567;52.444;13.556;2023-03-01T08:23:32;33.22;;;16.70;;
7051;SDS011;3567;52.444;13.556;2023-03-01T08:26:05;38.70;;;16.83;;
7051;SDS011;3567;52.444;13.556;2023-03-01T08:28:38;43.88;;;21.10;;
7051;SDS011;3567;52.444;13.556;2023-03-01T08:31:14;51.63;;;24.55;;
7051;SDS011;3567;52.444;13.556;2023-03-01T08:33:39;35.67;;;16.95;;
7051;SDS011;3567;52.444;13.556;2023-03-01T08:36:05;25.48;;;14.07;;
7051;SDS011;3567;52.444;13.556;2023-03-01T08:38:32;22.45;;;12.27;;
7051;SDS011;3567;52.444;13.556;2023-03-01T08:41:01;11.93;;;8.98;;
7051;SDS011;3567;52.444;13.556;2023-03-01T08:43:28;26.42;;;10.10;;
7051;SDS011;3567;52.444;13.556;2023-03-01T08:45:54;15.38;;;9.35;;
7051;SDS011;3567;52.444;13.556;2023-03-01T08:48:19;12.82;;;8.60;;
7051;SDS011;3567;52.444;13.556;2023-03-01T08:50:44;16.50;;;9.32;;
7051;SDS011;3567;52.444;13.556;2023-03-01T08:53:10;12.13;;;7.40;;
7051;SDS011;3567;52.444;13.556;2023-03-01T08:55:35;11.48;;;8.27;;
7051;SDS011;3567;52.444;13.556;2023-03-01T08:58:00;12.77;;;8.05;;
7051;SDS011;3567;52.444;13.556;2023-03-01T09:00:26;14.80;;;8.88;;
7051;SDS011;3567;52.444;13.556;2023-03-01T09:02:51;15.10;;;8.25;;
7051;SDS011;3567;52.444;13.556;2023-03-01T09:05:16;13.50;;;7.03;;
7051;SDS011;3567;52.444;13.556;2023-03-01T09:07:42;9.85;;;6.45;;
7051;SDS011;3567;52.444;13.556;2023-03-01T09:10:07;9.82;;;7.07;;
7051;SDS011;3567;52.444;13.556;2023-03-01T09:12:33;8.23;;;5.72;;
7051;SDS011;3567;52.444;13.556;2023-03-01T09:14:59;8.18;;;6.07;;
7051;SDS011;3567;52.444;13.556;2023-03-01T09:17:24;7.82;;;6.28;;
7051;SDS011;3567;52.444;13.556;2023-03-01T09:19:50;9.65;;;7.18;;
7051;SDS011;3567;52.444;13.556;2023-03-01T09:22:15;9.48;;;6.10;;
7051;SDS011;3567;52.444;13.556;2023-03-01T09:24:40;10.20;;;7.03;;
7051;SDS011;3567;52.444;13.556;2023-03-01T09:27:06;8.77;;;6.38;;
7051;SDS011;3567;52.444;13.556;2023-03-01T09:29:34;12.05;;;6.15;;
7051;SDS011;3567;52.444;13.556;2023-03-01T09:32:02;11.25;;;6.47;;
7051;SDS011;3567;52.444;13.556;2023-03-01T09:34:28;8.50;;;6.07;;
7051;SDS011;3567;52.444;13.556;2023-03-01T09:36:53;7.47;;;5.68;;
7051;SDS011;3567;52.444;13.556;2023-03-01T09:39:19;7.93;;;5.20;;
7051;SDS011;3567;52.444;13.556;2023-03-01T09:41:58;4.22;;;3.65;;
7051;SDS011;3567;52.444;13.556;2023-03-01T09:46:59;7.63;;;6.57;;
7051;SDS011;3567;52.444;13.556;2023-03-01T09:49:26;7.35;;;3.90;;
7051;SDS011;3567;52.444;13.556;2023-03-01T09:54:39;6.65;;;4.10;;
7051;SDS011;3567;52.444;13.556;2023-03-01T10:10:34;7.68;;;5.53;;
7051;SDS011;3567;52.444;13.556;2023-03-01T10:13:14;8.73;;;5.78;;
7051;SDS011;3567;52.444;13.556;2023-03-01T10:15:47;8.07;;;5.35;;
7051;SDS011;3567;52.444;13.556;2023-03-01T10:18:20;6.63;;;4.68;;
7051;SDS011;3567;52.444;13.556;2023-03-01T10:21:00;7.43;;;5.20;;
7051;SDS011;3567;52.444;13.556;2023-03-01T10:23:34;6.85;;;5.22;;
7051;SDS011;3567;52.444;13.556;2023-03-01T10:28:57;11.85;;;5.60;;
7051;SDS011;3567;52.444;13.556;2023-03-01T10:31:25;7.40;;;5.00;;
7051;SDS011;3567;52.444;13.556;2023-03-01T10:34:02;7.28;;;5.32;;
7051;SDS011;3567;52.444;13.556;2023-03-01T10:36:33;8.25;;;5.20;;
7051;SDS011;3567;52.444;13.556;2023-03-01T10:38:59;6.13;;;4.85;;
7051;SDS011;3567;52.444;13.556;2023-03-01T10:41:35;4.78;;;4.35;;
7051;SDS011;3567;52.444;13.556;2023-03-01T10:44:34;6.70;;;4.65;;
7051;SDS011;3567;52.444;13.556;2023-03-01T10:47:01;6.30;;;4.18;;
7051;SDS011;3567;52.444;13.556;2023-03-01T10:49:26;6.90;;;5.28;;
7051;SDS011;3567;52.444;13.556;2023-03-01T10:51:52;6.38;;;5.22;;
7051;SDS011;3567;52.444;13.556;2023-03-01T10:54:23;11.35;;;4.95;;
7051;SDS011;3567;52.444;13.556;2023-03-01T10:56:53;9.73;;;5.03;;
7051;SDS011;3567;52.444;13.556;2023-03-01T11:02:01;6.70;;;4.35;;
7051;SDS011;3567;52.444;13.556;2023-03-01T11:04:32;11.35;;;5.07;;
7051;SDS011;3567;52.444;13.556;2023-03-01T11:06:58;5.80;;;4.28;;
7051;SDS011;3567;52.444;13.556;2023-03-01T11:09:25;7.85;;;4.20;;
7051;SDS011;3567;52.444;13.556;2023-03-01T11:11:57;5.90;;;4.40;;
7051;SDS011;3567;52.444;13.556;2023-03-01T11:14:26;6.03;;;4.25;;
7051;SDS011;3567;52.444;13.556;2023-03-01T11:17:00;9.40;;;4.25;;
7051;SDS011;3567;52.444;13.556;2023-03-01T11:19:27;5.47;;;4.07;;
7051;SDS011;3567;52.444;13.556;2023-03-01T11:24:49;8.65;;;5.05;;
7051;SDS011;3567;52.444;13.556;2023-03-01T11:30:03;6.22;;;4.18;;
7051;SDS011;3567;52.444;13.556;2023-03-01T11:32:46;5.90;;;4.10;;
7051;SDS011;3567;52.444;13.556;2023-03-01T11:35:33;5.25;;;4.18;;
7051;SDS011;3567;52.444;13.556;2023-03-01T11:40:35;7.90;;;4.22;;
7051;SDS011;3567;52.444;13.556;2023-03-01T11:43:12;6.50;;;3.60;;
7051;SDS011;3567;52.444;13.556;2023-03-01T11:56:47;5.07;;;2.80;;
7051;SDS011;3567;52.444;13.556;2023-03-01T12:08:04;3.63;;;2.53;;
7051;SDS011;3567;52.444;13.556;2023-03-01T12:10:28;32.85;;;22.30;;
7051;SDS011;3567;52.444;13.556;2023-03-01T12:21:55;3.05;;;2.05;;
7051;SDS011;3567;52.444;13.556;2023-03-01T12:27:30;3.10;;;2.08;;
7051;SDS011;3567;52.444;13.556;2023-03-01T12:32:58;1.60;;;1.50;;
7051;SDS011;3567;52.444;13.556;2023-03-01T12:35:38;3.53;;;2.03;;
7051;SDS011;3567;52.444;13.556;2023-03-01T12:38:37;2.55;;;2.30;;
7051;SDS011;3567;52.444;13.556;2023-03-01T12:43:38;2.33;;;1.92;;
7051;SDS011;3567;52.444;13.556;2023-03-01T12:51:43;1.95;;;1.48;;
7051;SDS011;3567;52.444;13.556;2023-03-01T12:54:22;2.47;;;1.70;;
7051;SDS011;3567;52.444;13.556;2023-03-01T12:56:53;2.35;;;1.73;;
7051;SDS011;3567;52.444;13.556;2023-03-01T13:02:23;51.28;;;44.85;;
7051;SDS011;3567;52.444;13.556;2023-03-01T13:10:39;1.50;;;1.40;;
7051;SDS011;3567;52.444;13.556;2023-03-01T13:13:11;3.13;;;1.80;;
7051;SDS011;3567;52.444;13.556;2023-03-01T13:15:39;1.77;;;1.65;;
7051;SDS011;3567;52.444;13.556;2023-03-01T13:25:59;2.05;;;1.55;;
7051;SDS011;3567;52.444;13.556;2023-03-01T13:28:37;3.22;;;2.15;;
7051;SDS011;3567;52.444;13.556;2023-03-01T13:34:03;1.83;;;1.10;;
7051;SDS011;3567;52.444;13.556;2023-03-01T13:39:26;1.73;;;1.48;;
7051;SDS011;3567;52.444;13.556;2023-03-01T13:41:54;1.38;;;1.27;;
7051;SDS011;3567;52.444;13.556;2023-03-01T13:44:35;3.35;;;3.05;;
7051;SDS011;3567;52.444;13.556;2023-03-01T13:55:50;4.55;;;2.80;;
7051;SDS011;3567;52.444;13.556;2023-03-01T13:57:50;5.05;;;2.63;;
7051;SDS011;3567;52.444;13.556;2023-03-01T14:00:27;3.53;;;2.45;;
7051;SDS011;3567;52.444;13.556;2023-03-01T14:03:05;4.43;;;2.70;;
7051;SDS011;3567;52.444;13.556;2023-03-01T14:05:39;2.53;;;1.90;;
7051;SDS011;3567;52.444;13.556;2023-03-01T14:08:17;3.38;;;1.85;;
7051;SDS011;3567;52.444;13.556;2023-03-01T14:10:49;3.63;;;2.30;;
7051;SDS011;3567;52.444;13.556;2023-03-01T14:13:20;5.43;;;1.95;;
7051;SDS011;3567;52.444;13.556;2023-03-01T14:16:01;2.40;;;2.17;;
7051;SDS011;3567;52.444;13.556;2023-03-01T14:18:39;2.88;;;2.00;;
7051;SDS011;3567;52.444;13.556;2023-03-01T14:21:17;6.47;;;1.90;;
7051;SDS011;3567;52.444;13.556;2023-03-01T14:23:42;2.00;;;1.83;;
7051;SDS011;3567;52.444;13.556;2023-03-01T14:26:08;7.65;;;2.00;;
7051;SDS011;3567;52.444;13.556;2023-03-01T14:28:37;3.75;;;1.83;;
7051;SDS011;3567;52.444;13.556;2023-03-01T14:31:21;2.05;;;1.50;;
7051;SDS011;3567;52.444;13.556;2023-03-01T14:33:57;2.88;;;1.92;;
7051;SDS011;3567;52.444;13.556;2023-03-01T14:36:28;3.10;;;2.00;;
7051;SDS011;3567;52.444;13.556;2023-03-01T14:38:57;2.47;;;1.30;;
7051;SDS011;3567;52.444;13.556;2023-03-01T14:41:30;2.03;;;1.70;;
7051;SDS011;3567;52.444;13.556;2023-03-01T14:46:34;3.85;;;1.85;;
7051;SDS011;3567;52.444;13.556;2023-03-01T14:49:07;3.30;;;1.33;;
7051;SDS011;3567;52.444;13.556;2023-03-01T14:51:42;2.70;;;1.50;;
7051;SDS011;3567;52.444;13.556;2023-03-01T14:57:19;2.45;;;1.83;;
7051;SDS011;3567;52.444;13.556;2023-03-01T14:59:49;3.03;;;1.38;;
7051;SDS011;3567;52.444;13.556;2023-03-01T15:02:18;4.93;;;1.60;;
7051;SDS011;3567;52.444;13.556;2023-03-01T15:04:49;2.70;;;1.83;;
7051;SDS011;3567;52.444;13.556;2023-03-01T15:07:17;1.92;;;1.65;;
7051;SDS011;3567;52.444;13.556;2023-03-01T15:09:44;2.53;;;1.45;;
7051;SDS011;3567;52.444;13.556;2023-03-01T15:14:57;3.80;;;2.35;;
7051;SDS011;3567;52.444;13.556;2023-03-01T15:19:51;2.35;;;1.50;;
7051;SDS011;3567;52.444;13.556;2023-03-01T15:22:16;3.95;;;1.92;;
7051;SDS011;3567;52.444;13.556;2023-03-01T15:24:46;3.33;;;3.03;;
7051;SDS011;3567;52.444;13.556;2023-03-01T15:27:17;3.78;;;2.13;;
7051;SDS011;3567;52.444;13.556;2023-03-01T15:29:54;3.33;;;1.40;;
7051;SDS011;3567;52.444;13.556;2023-03-01T15:34:49;4.70;;;1.55;;
7051;SDS011;3567;52.444;13.556;2023-03-01T15:40:24;3.45;;;2.65;;
7051;SDS011;3567;52.444;13.556;2023-03-01T15:43:00;5.75;;;1.98;;
7051;SDS011;3567;52.444;13.556;2023-03-01T15:45:28;1.73;;;1.60;;
7051;SDS011;3567;52.444;13.556;2023-03-01T15:47:58;1.90;;;1.40;;
7051;SDS011;3567;52.444;13.556;2023-03-01T15:50:29;2.45;;;1.33;;
7051;SDS011;3567;52.444;13.556;2023-03-01T15:52:58;3.63;;;1.50;;
7051;SDS011;3567;52.444;13.556;2023-03-01T15:55:25;2.72;;;1.63;;
7051;SDS011;3567;52.444;13.556;2023-03-01T15:58:13;2.22;;;1.40;;
7051;SDS011;3567;52.444;13.556;2023-03-01T16:00:46;1.88;;;1.77;;
7051;SDS011;3567;52.444;13.556;2023-03-01T16:03:14;4.38;;;1.30;;
7051;SDS011;3567;52.444;13.556;2023-03-01T16:05:46;1.20;;;1.10;;
7051;SDS011;3567;52.444;13.556;2023-03-01T16:08:13;4.07;;;1.00;;
7051;SDS011;3567;52.444;13.556;2023-03-01T16:10:39;1.92;;;1.65;;
7051;SDS011;3567;52.444;13.556;2023-03-01T16:13:05;4.35;;;1.05;;
7051;SDS011;3567;52.444;13.556;2023-03-01T16:15:32;2.28;;;1.30;;
7051;SDS011;3567;52.444;13.556;2023-03-01T16:17:59;2.45;;;1.15;;
7051;SDS011;3567;52.444;13.556;2023-03-01T16:20:25;1.90;;;1.10;;
7051;SDS011;3567;52.444;13.556;2023-03-01T16:22:51;1.95;;;1.40;;
7051;SDS011;3567;52.444;13.556;2023-03-01T16:25:17;4.15;;;1.45;;
7051;SDS011;3567;52.444;13.556;2023-03-01T16:27:48;2.75;;;1.42;;
7051;SDS011;3567;52.444;13.556;2023-03-01T16:30:16;1.55;;;1.23;;
7051;SDS011;3567;52.444;13.556;2023-03-01T16:32:44;3.97;;;0.82;;
7051;SDS011;3567;52.444;13.556;2023-03-01T16:35:11;2.60;;;1.45;;
7051;SDS011;3567;52.444;13.556;2023-03-01T16:37:38;3.30;;;1.63;;
7051;SDS011;3567;52.444;13.556;2023-03-01T16:40:04;2.80;;;1.50;;
7051;SDS011;3567;52.444;13.556;2023-03-01T16:42:35;3.00;;;1.70;;
7051;SDS011;3567;52.444;13.556;2023-03-01T16:45:01;2.03;;;1.42;;
7051;SDS011;3567;52.444;13.556;2023-03-01T16:47:26;5.03;;;1.60;;
7051;SDS011;3567;52.444;13.556;2023-03-01T16:49:52;2.83;;;1.65;;
7051;SDS011;3567;52.444;13.556;2023-03-01T16:52:19;2.33;;;1.23;;
7051;SDS011;3567;52.444;13.556;2023-03-01T16:54:45;1.30;;;1.23;;
7051;SDS011;3567;52.444;13.556;2023-03-01T16:57:10;3.88;;;1.52;;
7051;SDS011;3567;52.444;13.556;2023-03-01T16:59:36;4.00;;;1.33;;
7051;SDS011;3567;52.444;13.556;2023-03-01T17:02:02;2.13;;;1.40;;